sensor_id;sensor_type;location;lat;lon;timestamp;pressure;altitude;pressure_sealevel;temperature;humidity
51299;BME280;37382;45.192;9.790;2023-01-26T05:11:03;101331.66;;;3.67;100.00
51299;BME280;37382;45.192;9.790;2023-01-26T05:13:49;101339.19;;;3.02;100.00
51299;BME280;37382;45.192;9.790;2023-01-26T05:16:25;101344.81;;;2.36;100.00
51299;BME280;37382;45.192;9.790;2023-01-26T05:19:21;101349.91;;;2.18;100.00
51299;BME280;37382;45.192;9.790;2023-01-26T05:21:57;101351.72;;;2.28;100.00
51299;BME280;37382;45.192;9.790;2023-01-26T05:24:25;101357.81;;;2.52;100.00
51299;BME280;37382;45.192;9.790;2023-01-26T05:26:58;101356.91;;;2.83;100.00
51299;BME280;37382;45.192;9.790;2023-01-26T05:29:48;101346.63;;;2.67;100.00
51299;BME280;37382;45.192;9.790;2023-01-26T05:32:18;101360.19;;;2.66;100.00
51299;BME280;37382;45.192;9.790;2023-01-26T05:34:49;101353.94;;;2.44;100.00
51299;BME280;37382;45.192;9.790;2023-01-26T05:37:18;101351.72;;;2.92;100.00
51299;BME280;37382;45.192;9.790;2023-01-26T05:39:46;101348.97;;;3.03;100.00
51299;BME280;37382;45.192;9.790;2023-01-26T05:42:13;101340.38;;;3.09;100.00
51299;BME280;37382;45.192;9.790;2023-01-26T05:44:50;101350.72;;;3.14;100.00
51299;BME280;37382;45.192;9.790;2023-01-26T05:47:17;101351.31;;;2.96;100.00
51299;BME280;37382;45.192;9.790;2023-01-26T05:49:47;101353.44;;;2.93;100.00
51299;BME280;37382;45.192;9.790;2023-01-26T05:52:24;101350.28;;;2.88;100.00
51299;BME280;37382;45.192;9.790;2023-01-26T05:54:52;101346.06;;;2.95;100.00
51299;BME280;37382;45.192;9.790;2023-01-26T05:57:19;101344.06;;;3.18;100.00
51299;BME280;37382;45.192;9.790;2023-01-26T05:59:51;101334.47;;;3.25;100.00
51299;BME280;37382;45.192;9.790;2023-01-26T06:02:19;101347.16;;;3.13;100.00
51299;BME280;37382;45.192;9.790;2023-01-26T06:04:48;101342.03;;;3.10;100.00
51299;BME280;37382;45.192;9.790;2023-01-26T06:07:15;101359.88;;;2.59;100.00
51299;BME280;37382;45.192;9.790;2023-01-26T06:10:02;101355.72;;;2.55;100.00
51299;BME280;37382;45.192;9.790;2023-01-26T06:12:47;101360.34;;;2.95;100.00
51299;BME280;37382;45.192;9.790;2023-01-26T06:15:33;101345.34;;;3.14;100.00
51299;BME280;37382;45.192;9.790;2023-01-26T06:18:02;101350.34;;;2.97;100.00
51299;BME280;37382;45.192;9.790;2023-01-26T06:20:30;101339.34;;;3.10;100.00
51299;BME280;37382;45.192;9.790;2023-01-26T06:22:59;101345.63;;;2.90;100.00
51299;BME280;37382;45.192;9.790;2023-01-26T06:25:30;101350.03;;;2.70;100.00
51299;BME280;37382;45.192;9.790;2023-01-26T06:27:58;101343.13;;;2.98;100.00
51299;BME280;37382;45.192;9.790;2023-01-26T06:30:27;101336.25;;;3.15;100.00
51299;BME280;37382;45.192;9.790;2023-01-26T06:32:59;101334.31;;;3.17;100.00
51299;BME280;37382;45.192;9.790;2023-01-26T06:35:28;101331.56;;;3.07;100.00
51299;BME280;37382;45.192;9.790;2023-01-26T06:37:59;101327.53;;;2.92;100.00
51299;BME280;37382;45.192;9.790;2023-01-26T06:40:27;101323.69;;;3.15;100.00
51299;BME280;37382;45.192;9.790;2023-01-26T06:42:55;101329.91;;;3.16;100.00
51299;BME280;37382;45.192;9.790;2023-01-26T06:45:22;101324.28;;;3.29;100.00
51299;BME280;37382;45.192;9.790;2023-01-26T06:47:51;101317.44;;;3.55;100.00
51299;BME280;37382;45.192;9.790;2023-01-26T06:50:22;101319.88;;;3.68;100.00
51299;BME280;37382;45.192;9.790;2023-01-26T06:52:54;101320.56;;;3.61;100.00
51299;BME280;37382;45.192;9.790;2023-01-26T06:55:41;101311.66;;;3.70;100.00
51299;BME280;37382;45.192;9.790;2023-01-26T06:58:27;101304.75;;;3.77;100.00
51299;BME280;37382;45.192;9.790;2023-01-26T07:01:19;101305.91;;;3.94;100.00
51299;BME280;37382;45.192;9.790;2023-01-26T07:03:51;101306.47;;;3.98;100.00
51299;BME280;37382;45.192;9.790;2023-01-26T07:06:19;101306.06;;;4.02;100.00
51299;BME280;37382;45.192;9.790;2023-01-26T07:08:47;101305.06;;;4.13;100.00
51299;BME280;37382;45.192;9.790;2023-01-26T07:11:14;101297.84;;;4.23;100.00
51299;BME280;37382;45.192;9.790;2023-01-26T07:13:43;101305.72;;;3.66;100.00
51299;BME280;37382;45.192;9.790;2023-01-26T07:16:12;101317.91;;;3.20;100.00
51299;BME280;37382;45.192;9.790;2023-01-26T07:18:40;101321.34;;;2.70;100.00
51299;BME280;37382;45.192;9.790;2023-01-26T07:21:13;101325.25;;;2.66;100.00
51299;BME280;37382;45.192;9.790;2023-01-26T07:23:41;101316.59;;;2.83;100.00
51299;BME280;37382;45.192;9.790;2023-01-26T07:26:09;101315.53;;;3.27;100.00
51299;BME280;37382;45.192;9.790;2023-01-26T07:28:36;101301.72;;;3.41;100.00
51299;BME280;37382;45.192;9.790;2023-01-26T07:31:07;101306.63;;;3.26;100.00
51299;BME280;37382;45.192;9.790;2023-01-26T07:33:35;101313.81;;;3.26;100.00
51299;BME280;37382;45.192;9.790;2023-01-26T07:36:03;101302.56;;;3.42;100.00
51299;BME280;37382;45.192;9.790;2023-01-26T07:38:31;101309.53;;;3.54;100.00
51299;BME280;37382;45.192;9.790;2023-01-26T07:41:04;101312.34;;;3.52;100.00
51299;BME280;37382;45.192;9.790;2023-01-26T07:43:33;101312.63;;;3.59;100.00
51299;BME280;37382;45.192;9.790;2023-01-26T07:46:02;101310.47;;;3.43;100.00
51299;BME280;37382;45.192;9.790;2023-01-26T07:48:30;101309.78;;;3.51;100.00
51299;BME280;37382;45.192;9.790;2023-01-26T07:51:00;101321.78;;;3.37;100.00
51299;BME280;37382;45.192;9.790;2023-01-26T07:53:29;101314.75;;;3.46;100.00
51299;BME280;37382;45.192;9.790;2023-01-26T07:56:13;101321.28;;;3.12;100.00
51299;BME280;37382;45.192;9.790;2023-01-26T07:58:42;101312.00;;;3.26;100.00
51299;BME280;37382;45.192;9.790;2023-01-26T08:01:14;101317.53;;;3.34;100.00
51299;BME280;37382;45.192;9.790;2023-01-26T08:03:43;101309.84;;;3.80;100.00
51299;BME280;37382;45.192;9.790;2023-01-26T08:06:12;101306.75;;;4.04;100.00
51299;BME280;37382;45.192;9.790;2023-01-26T08:08:42;101311.00;;;4.36;100.00
51299;BME280;37382;45.192;9.790;2023-01-26T08:11:10;101310.56;;;4.60;100.00
51299;BME280;37382;45.192;9.790;2023-01-26T08:13:38;101308.97;;;4.68;100.00
51299;BME280;37382;45.192;9.790;2023-01-26T08:16:08;101310.81;;;4.77;100.00
51299;BME280;37382;45.192;9.790;2023-01-26T08:18:40;101312.19;;;4.81;100.00
51299;BME280;37382;45.192;9.790;2023-01-26T08:21:09;101317.44;;;4.92;100.00
51299;BME280;37382;45.192;9.790;2023-01-26T08:23:37;101312.97;;;5.11;100.00
51299;BME280;37382;45.192;9.790;2023-01-26T08:26:09;101312.66;;;5.14;100.00
51299;BME280;37382;45.192;9.790;2023-01-26T08:28:37;101312.22;;;5.19;100.00
51299;BME280;37382;45.192;9.790;2023-01-26T08:31:09;101321.28;;;5.27;100.00
51299;BME280;37382;45.192;9.790;2023-01-26T08:33:40;101316.38;;;5.41;100.00
51299;BME280;37382;45.192;9.790;2023-01-26T08:36:13;101318.41;;;5.57;100.00
51299;BME280;37382;45.192;9.790;2023-01-26T08:38:41;101317.78;;;5.73;100.00
51299;BME280;37382;45.192;9.790;2023-01-26T08:41:10;101322.59;;;5.69;100.00
51299;BME280;37382;45.192;9.790;2023-01-26T08:43:38;101320.84;;;5.78;100.00
51299;BME280;37382;45.192;9.790;2023-01-26T08:46:06;101321.47;;;5.72;100.00
51299;BME280;37382;45.192;9.790;2023-01-26T08:48:33;101319.91;;;5.69;100.00
51299;BME280;37382;45.192;9.790;2023-01-26T08:51:02;101306.81;;;5.46;100.00
51299;BME280;37382;45.192;9.790;2023-01-26T08:53:32;101309.34;;;5.58;100.00
51299;BME280;37382;45.192;9.790;2023-01-26T08:56:00;101313.75;;;5.77;100.00
51299;BME280;37382;45.192;9.790;2023-01-26T08:58:28;101314.47;;;5.79;100.00
51299;BME280;37382;45.192;9.790;2023-01-26T09:00:56;101322.00;;;6.03;100.00
51299;BME280;37382;45.192;9.790;2023-01-26T09:03:23;101319.53;;;6.28;100.00
51299;BME280;37382;45.192;9.790;2023-01-26T09:05:51;101319.38;;;6.11;100.00
51299;BME280;37382;45.192;9.790;2023-01-26T09:08:18;101321.75;;;6.14;100.00
51299;BME280;37382;45.192;9.790;2023-01-26T09:10:46;101310.44;;;6.11;100.00
51299;BME280;37382;45.192;9.790;2023-01-26T09:13:13;101312.16;;;5.84;100.00
51299;BME280;37382;45.192;9.790;2023-01-26T09:15:40;101312.38;;;5.91;100.00
51299;BME280;37382;45.192;9.790;2023-01-26T09:18:08;101312.69;;;5.69;100.00
51299;BME280;37382;45.192;9.790;2023-01-26T09:20:37;101308.94;;;5.98;100.00
51299;BME280;37382;45.192;9.790;2023-01-26T09:23:05;101314.16;;;5.82;100.00
51299;BME280;37382;45.192;9.790;2023-01-26T09:25:37;101320.69;;;6.07;100.00
51299;BME280;37382;45.192;9.790;2023-01-26T09:28:05;101319.59;;;6.18;100.00
51299;BME280;37382;45.192;9.790;2023-01-26T09:30:33;101317.03;;;6.34;100.00
51299;BME280;37382;45.192;9.790;2023-01-26T09:33:02;101309.41;;;6.30;100.00
51299;BME280;37382;45.192;9.790;2023-01-26T09:35:31;101319.22;;;6.13;100.00
51299;BME280;37382;45.192;9.790;2023-01-26T09:37:59;101321.13;;;6.56;100.00
51299;BME280;37382;45.192;9.790;2023-01-26T09:40:51;101320.84;;;6.68;100.00
51299;BME280;37382;45.192;9.790;2023-01-26T09:46:21;101315.25;;;6.61;100.00
51299;BME280;37382;45.192;9.790;2023-01-26T09:51:39;101327.78;;;6.44;100.00
51299;BME280;37382;45.192;9.790;2023-01-26T09:56:44;101322.69;;;6.85;100.00
51299;BME280;37382;45.192;9.790;2023-01-26T09:59:35;101321.13;;;6.83;100.00
51299;BME280;37382;45.192;9.790;2023-01-26T10:02:22;101315.53;;;7.10;100.00
51299;BME280;37382;45.192;9.790;2023-01-26T10:04:57;101317.72;;;7.07;100.00
51299;BME280;37382;45.192;9.790;2023-01-26T10:07:28;101316.19;;;7.04;100.00
51299;BME280;37382;45.192;9.790;2023-01-26T10:09:55;101312.44;;;6.71;100.00
51299;BME280;37382;45.192;9.790;2023-01-26T10:12:27;101311.44;;;7.06;100.00
51299;BME280;37382;45.192;9.790;2023-01-26T10:15:22;101305.38;;;7.47;100.00
51299;BME280;37382;45.192;9.790;2023-01-26T10:17:54;101294.06;;;7.43;100.00
51299;BME280;37382;45.192;9.790;2023-01-26T10:23:11;101293.69;;;7.38;100.00
51299;BME280;37382;45.192;9.790;2023-01-26T10:25:43;101287.28;;;7.47;100.00
51299;BME280;37382;45.192;9.790;2023-01-26T10:28:14;101286.28;;;7.48;100.00
51299;BME280;37382;45.192;9.790;2023-01-26T10:30:44;101277.75;;;7.35;100.00
51299;BME280;37382;45.192;9.790;2023-01-26T10:33:33;101271.97;;;7.22;100.00
51299;BME280;37382;45.192;9.790;2023-01-26T10:36:02;101267.31;;;7.48;100.00
51299;BME280;37382;45.192;9.790;2023-01-26T10:43:41;101258.03;;;7.59;100.00
51299;BME280;37382;45.192;9.790;2023-01-26T10:46:28;101262.69;;;8.00;100.00
51299;BME280;37382;45.192;9.790;2023-01-26T10:49:02;101260.28;;;7.80;100.00
51299;BME280;37382;45.192;9.790;2023-01-26T10:51:32;101257.41;;;7.82;100.00
51299;BME280;37382;45.192;9.790;2023-01-26T10:54:13;101241.13;;;7.65;100.00
51299;BME280;37382;45.192;9.790;2023-01-26T10:59:33;101246.06;;;7.62;100.00
51299;BME280;37382;45.192;9.790;2023-01-26T11:02:19;101243.41;;;8.19;100.00
51299;BME280;37382;45.192;9.790;2023-01-26T11:10:33;101229.97;;;8.67;100.00
51299;BME280;37382;45.192;9.790;2023-01-26T11:13:20;101220.44;;;8.80;100.00
51299;BME280;37382;45.192;9.790;2023-01-26T11:16:00;101220.03;;;8.51;100.00
51299;BME280;37382;45.192;9.790;2023-01-26T11:21:28;101213.34;;;8.79;100.00
51299;BME280;37382;45.192;9.790;2023-01-26T11:33:01;101193.00;;;8.75;100.00
51299;BME280;37382;45.192;9.790;2023-01-26T11:35:45;101183.75;;;8.44;100.00
51299;BME280;37382;45.192;9.790;2023-01-26T11:38:30;101172.72;;;9.02;100.00
51299;BME280;37382;45.192;9.790;2023-01-26T11:41:05;101170.00;;;9.02;100.00
51299;BME280;37382;45.192;9.790;2023-01-26T11:49:26;101155.72;;;9.08;100.00
51299;BME280;37382;45.192;9.790;2023-01-26T11:59:45;101136.75;;;9.54;100.00
51299;BME280;37382;45.192;9.790;2023-01-26T12:04:58;101126.78;;;9.70;100.00
51299;BME280;37382;45.192;9.790;2023-01-26T12:07:34;101117.31;;;10.04;100.00
51299;BME280;37382;45.192;9.790;2023-01-26T12:10:23;101123.34;;;9.76;100.00
51299;BME280;37382;45.192;9.790;2023-01-26T12:13:04;101118.63;;;9.93;100.00
51299;BME280;37382;45.192;9.790;2023-01-26T12:15:35;101107.56;;;10.09;100.00
51299;BME280;37382;45.192;9.790;2023-01-26T12:18:11;101099.88;;;9.98;100.00
51299;BME280;37382;45.192;9.790;2023-01-26T12:20:50;101095.28;;;10.13;100.00
51299;BME280;37382;45.192;9.790;2023-01-26T12:25:52;101096.56;;;9.88;100.00
51299;BME280;37382;45.192;9.790;2023-01-26T12:28:32;101083.84;;;10.03;100.00
51299;BME280;37382;45.192;9.790;2023-01-26T12:33:35;101086.97;;;9.16;100.00
51299;BME280;37382;45.192;9.790;2023-01-26T12:36:14;101078.09;;;9.22;100.00
51299;BME280;37382;45.192;9.790;2023-01-26T12:38:54;101072.22;;;8.87;100.00
51299;BME280;37382;45.192;9.790;2023-01-26T12:41:36;101066.97;;;8.85;100.00
51299;BME280;37382;45.192;9.790;2023-01-26T12:46:45;101066.38;;;9.68;100.00
51299;BME280;37382;45.192;9.790;2023-01-26T12:49:25;101051.81;;;10.13;100.00
51299;BME280;37382;45.192;9.790;2023-01-26T12:52:01;101051.84;;;9.37;100.00
51299;BME280;37382;45.192;9.790;2023-01-26T12:54:48;101052.50;;;9.77;100.00
51299;BME280;37382;45.192;9.790;2023-01-26T12:57:20;101047.03;;;9.48;100.00
51299;BME280;37382;45.192;9.790;2023-01-26T12:59:48;101048.53;;;9.50;100.00
51299;BME280;37382;45.192;9.790;2023-01-26T13:02:29;101042.31;;;9.41;100.00
51299;BME280;37382;45.192;9.790;2023-01-26T13:04:59;101039.72;;;9.48;100.00
51299;BME280;37382;45.192;9.790;2023-01-26T13:07:36;101031.69;;;9.55;100.00
51299;BME280;37382;45.192;9.790;2023-01-26T13:13:00;101021.53;;;9.87;100.00
51299;BME280;37382;45.192;9.790;2023-01-26T13:15:30;101020.03;;;9.84;100.00
51299;BME280;37382;45.192;9.790;2023-01-26T13:18:00;101020.88;;;10.00;100.00
51299;BME280;37382;45.192;9.790;2023-01-26T13:20:48;101020.97;;;10.36;100.00
51299;BME280;37382;45.192;9.790;2023-01-26T13:31:44;101004.56;;;10.29;100.00
51299;BME280;37382;45.192;9.790;2023-01-26T13:34:15;101003.25;;;9.95;100.00
51299;BME280;37382;45.192;9.790;2023-01-26T13:36:47;101001.72;;;10.53;100.00
51299;BME280;37382;45.192;9.790;2023-01-26T13:39:37;100996.41;;;10.29;99.89
51299;BME280;37382;45.192;9.790;2023-01-26T13:42:15;100990.50;;;10.41;100.00
51299;BME280;37382;45.192;9.790;2023-01-26T13:44:51;100985.31;;;9.71;100.00
51299;BME280;37382;45.192;9.790;2023-01-26T13:47:25;100988.44;;;9.15;100.00
51299;BME280;37382;45.192;9.790;2023-01-26T13:49:54;100992.47;;;8.96;100.00
51299;BME280;37382;45.192;9.790;2023-01-26T13:52:24;100993.06;;;9.06;100.00
51299;BME280;37382;45.192;9.790;2023-01-26T13:54:54;100998.25;;;8.93;100.00
51299;BME280;37382;45.192;9.790;2023-01-26T13:57:26;100991.81;;;8.71;100.00
51299;BME280;37382;45.192;9.790;2023-01-26T13:59:55;100992.44;;;9.19;100.00
51299;BME280;37382;45.192;9.790;2023-01-26T14:02:32;100981.03;;;9.47;100.00
51299;BME280;37382;45.192;9.790;2023-01-26T14:05:01;100987.00;;;9.04;100.00
51299;BME280;37382;45.192;9.790;2023-01-26T14:07:37;100985.53;;;9.32;100.00
51299;BME280;37382;45.192;9.790;2023-01-26T14:10:06;100975.75;;;9.31;100.00
51299;BME280;37382;45.192;9.790;2023-01-26T14:15:07;100974.91;;;9.07;100.00
51299;BME280;37382;45.192;9.790;2023-01-26T14:17:55;100980.88;;;8.79;100.00
51299;BME280;37382;45.192;9.790;2023-01-26T14:20:35;100980.94;;;8.71;100.00
51299;BME280;37382;45.192;9.790;2023-01-26T14:25:33;100974.81;;;8.77;100.00
51299;BME280;37382;45.192;9.790;2023-01-26T14:28:01;100978.66;;;9.06;100.00
51299;BME280;37382;45.192;9.790;2023-01-26T14:30:33;100980.53;;;8.82;100.00
51299;BME280;37382;45.192;9.790;2023-01-26T14:33:06;100982.03;;;9.08;100.00
51299;BME280;37382;45.192;9.790;2023-01-26T14:35:34;100971.59;;;9.20;100.00
51299;BME280;37382;45.192;9.790;2023-01-26T14:40:50;100980.44;;;8.90;100.00
51299;BME280;37382;45.192;9.790;2023-01-26T14:43:18;100980.59;;;8.74;100.00
51299;BME280;37382;45.192;9.790;2023-01-26T14:45:59;100990.06;;;8.38;100.00
51299;BME280;37382;45.192;9.790;2023-01-26T14:49:24;100984.03;;;8.68;100.00
51299;BME280;37382;45.192;9.790;2023-01-26T14:51:24;100987.88;;;8.42;100.00
51299;BME280;37382;45.192;9.790;2023-01-26T14:53:56;100984.59;;;8.15;100.00
51299;BME280;37382;45.192;9.790;2023-01-26T14:56:38;100975.09;;;8.82;100.00
51299;BME280;37382;45.192;9.790;2023-01-26T14:59:07;100974.00;;;8.92;100.00
51299;BME280;37382;45.192;9.790;2023-01-26T15:01:40;100979.19;;;8.78;100.00
51299;BME280;37382;45.192;9.790;2023-01-26T15:04:21;100975.19;;;8.34;100.00
51299;BME280;37382;45.192;9.790;2023-01-26T15:06:50;100963.63;;;8.49;100.00
51299;BME280;37382;45.192;9.790;2023-01-26T15:09:27;100970.63;;;8.27;100.00
51299;BME280;37382;45.192;9.790;2023-01-26T15:11:58;100968.34;;;8.15;100.00
51299;BME280;37382;45.192;9.790;2023-01-26T15:19:57;100970.81;;;8.25;100.00
51299;BME280;37382;45.192;9.790;2023-01-26T15:22:25;100962.38;;;8.20;100.00
51299;BME280;37382;45.192;9.790;2023-01-26T15:28:33;100967.59;;;8.30;100.00
51299;BME280;37382;45.192;9.790;2023-01-26T15:30:35;100968.16;;;7.69;100.00
51299;BME280;37382;45.192;9.790;2023-01-26T15:33:03;100961.75;;;8.10;100.00
51299;BME280;37382;45.192;9.790;2023-01-26T15:35:33;100964.44;;;8.10;100.00
51299;BME280;37382;45.192;9.790;2023-01-26T15:38:08;100963.53;;;7.86;100.00
51299;BME280;37382;45.192;9.790;2023-01-26T15:40:37;100964.97;;;8.05;100.00
51299;BME280;37382;45.192;9.790;2023-01-26T15:43:15;100964.81;;;8.07;100.00
51299;BME280;37382;45.192;9.790;2023-01-26T15:45:52;100967.03;;;8.03;100.00
51299;BME280;37382;45.192;9.790;2023-01-26T15:48:21;100964.00;;;7.98;100.00
51299;BME280;37382;45.192;9.790;2023-01-26T15:50:49;100975.19;;;7.95;100.00
51299;BME280;37382;45.192;9.790;2023-01-26T15:53:18;100969.97;;;7.93;100.00
51299;BME280;37382;45.192;9.790;2023-01-26T15:55:47;100971.19;;;7.74;100.00
51299;BME280;37382;45.192;9.790;2023-01-26T15:58:24;100970.03;;;7.60;100.00
51299;BME280;37382;45.192;9.790;2023-01-26T16:00:52;100966.53;;;7.43;100.00
51299;BME280;37382;45.192;9.790;2023-01-26T16:03:20;100970.59;;;7.39;100.00
51299;BME280;37382;45.192;9.790;2023-01-26T16:05:49;100963.13;;;7.41;100.00
51299;BME280;37382;45.192;9.790;2023-01-26T16:08:17;100964.66;;;7.27;100.00
51299;BME280;37382;45.192;9.790;2023-01-26T16:10:45;100950.47;;;7.25;100.00
51299;BME280;37382;45.192;9.790;2023-01-26T16:13:16;100957.56;;;7.18;100.00
51299;BME280;37382;45.192;9.790;2023-01-26T16:15:50;100953.03;;;7.10;100.00
51299;BME280;37382;45.192;9.790;2023-01-26T16:18:18;100958.78;;;6.99;100.00
51299;BME280;37382;45.192;9.790;2023-01-26T16:20:47;100949.16;;;6.88;100.00
51299;BME280;37382;45.192;9.790;2023-01-26T16:23:21;100955.06;;;6.84;100.00
51299;BME280;37382;45.192;9.790;2023-01-26T16:25:49;100951.31;;;6.68;100.00
51299;BME280;37382;45.192;9.790;2023-01-26T16:28:17;100955.03;;;6.67;100.00
51299;BME280;37382;45.192;9.790;2023-01-26T16:30:46;100950.97;;;6.63;100.00
51299;BME280;37382;45.192;9.790;2023-01-26T16:33:17;100954.16;;;6.58;100.00
51299;BME280;37382;45.192;9.790;2023-01-26T16:35:47;100952.63;;;6.48;100.00
51299;BME280;37382;45.192;9.790;2023-01-26T16:38:14;100956.50;;;6.45;100.00
51299;BME280;37382;45.192;9.790;2023-01-26T16:40:43;100951.91;;;6.29;100.00
51299;BME280;37382;45.192;9.790;2023-01-26T16:43:18;100956.44;;;6.29;100.00
51299;BME280;37382;45.192;9.790;2023-01-26T16:45:50;100954.78;;;6.28;100.00
51299;BME280;37382;45.192;9.790;2023-01-26T16:48:19;100960.31;;;6.18;100.00
51299;BME280;37382;45.192;9.790;2023-01-26T16:50:50;100955.88;;;6.09;100.00
51299;BME280;37382;45.192;9.790;2023-01-26T16:53:26;100957.91;;;6.07;100.00
51299;BME280;37382;45.192;9.790;2023-01-26T16:55:54;100959.19;;;5.94;100.00
51299;BME280;37382;45.192;9.790;2023-01-26T16:58:22;100958.97;;;5.87;100.00
51299;BME280;37382;45.192;9.790;2023-01-26T17:00:55;100951.69;;;5.80;100.00
51299;BME280;37382;45.192;9.790;2023-01-26T17:03:23;100950.66;;;5.73;100.00
51299;BME280;37382;45.192;9.790;2023-01-26T17:05:51;100957.88;;;5.72;100.00
51299;BME280;37382;45.192;9.790;2023-01-26T17:08:19;100961.53;;;5.63;100.00
51299;BME280;37382;45.192;9.790;2023-01-26T17:10:46;100963.75;;;5.67;100.00
51299;BME280;37382;45.192;9.790;2023-01-26T17:13:28;100963.75;;;5.67;100.00
51299;BME280;37382;45.192;9.790;2023-01-26T17:15:57;100953.13;;;5.66;100.00
51299;BME280;37382;45.192;9.790;2023-01-26T17:18:24;100963.75;;;5.67;100.00
51299;BME280;37382;45.192;9.790;2023-01-26T17:20:52;100964.41;;;5.61;100.00
51299;BME280;37382;45.192;9.790;2023-01-26T17:23:20;100968.38;;;5.49;100.00
51299;BME280;37382;45.192;9.790;2023-01-26T17:25:47;100969.06;;;5.25;100.00
51299;BME280;37382;45.192;9.790;2023-01-26T17:28:15;100977.16;;;5.25;100.00
51299;BME280;37382;45.192;9.790;2023-01-26T17:30:43;100973.63;;;5.24;100.00
51299;BME280;37382;45.192;9.790;2023-01-26T17:33:11;100972.22;;;5.20;100.00
51299;BME280;37382;45.192;9.790;2023-01-26T17:35:38;100977.63;;;5.20;100.00
51299;BME280;37382;45.192;9.790;2023-01-26T17:38:05;100978.72;;;5.09;100.00
51299;BME280;37382;45.192;9.790;2023-01-26T17:40:34;100995.06;;;5.08;100.00
51299;BME280;37382;45.192;9.790;2023-01-26T17:43:02;100989.44;;;4.83;100.00
51299;BME280;37382;45.192;9.790;2023-01-26T17:45:30;100991.41;;;4.45;100.00
51299;BME280;37382;45.192;9.790;2023-01-26T17:47:57;100988.56;;;4.47;100.00
51299;BME280;37382;45.192;9.790;2023-01-26T17:50:24;100993.19;;;4.54;100.00
51299;BME280;37382;45.192;9.790;2023-01-26T17:52:52;100993.56;;;4.59;100.00
51299;BME280;37382;45.192;9.790;2023-01-26T17:55:19;100995.97;;;4.62;100.00
51299;BME280;37382;45.192;9.790;2023-01-26T17:57:46;101000.75;;;4.69;100.00
51299;BME280;37382;45.192;9.790;2023-01-26T18:00:15;100997.53;;;4.83;100.00
51299;BME280;37382;45.192;9.790;2023-01-26T18:02:43;100992.50;;;4.88;100.00
51299;BME280;37382;45.192;9.790;2023-01-26T18:05:11;101001.91;;;4.84;100.00
51299;BME280;37382;45.192;9.790;2023-01-26T18:07:39;101006.63;;;4.82;100.00
51299;BME280;37382;45.192;9.790;2023-01-26T18:10:06;101005.63;;;4.83;100.00
51299;BME280;37382;45.192;9.790;2023-01-26T18:12:34;101007.59;;;4.81;100.00
51299;BME280;37382;45.192;9.790;2023-01-26T18:15:04;101008.94;;;4.77;100.00
51299;BME280;37382;45.192;9.790;2023-01-26T18:17:31;101004.38;;;4.77;100.00
51299;BME280;37382;45.192;9.790;2023-01-26T18:19:59;101009.47;;;4.80;100.00
51299;BME280;37382;45.192;9.790;2023-01-26T18:22:26;101008.38;;;4.73;100.00
51299;BME280;37382;45.192;9.790;2023-01-26T18:24:54;101009.09;;;4.75;100.00
51299;BME280;37382;45.192;9.790;2023-01-26T18:27:21;101005.16;;;4.70;100.00
51299;BME280;37382;45.192;9.790;2023-01-26T18:29:50;101003.97;;;4.54;100.00
51299;BME280;37382;45.192;9.790;2023-01-26T18:32:17;100999.47;;;3.89;100.00
51299;BME280;37382;45.192;9.790;2023-01-26T18:34:44;101003.22;;;3.79;100.00
51299;BME280;37382;45.192;9.790;2023-01-26T18:37:12;101008.38;;;4.00;100.00
51299;BME280;37382;45.192;9.790;2023-01-26T18:39:40;101002.41;;;4.06;100.00
51299;BME280;37382;45.192;9.790;2023-01-26T18:42:07;101010.97;;;4.19;100.00
51299;BME280;37382;45.192;9.790;2023-01-26T18:44:35;101000.75;;;4.23;100.00
51299;BME280;37382;45.192;9.790;2023-01-26T18:47:02;101006.69;;;4.26;100.00
51299;BME280;37382;45.192;9.790;2023-01-26T18:49:30;101005.28;;;4.22;100.00
51299;BME280;37382;45.192;9.790;2023-01-26T18:51:58;101001.78;;;4.22;100.00
51299;BME280;37382;45.192;9.790;2023-01-26T18:54:25;100995.50;;;4.21;100.00
51299;BME280;37382;45.192;9.790;2023-01-26T18:56:53;101001.09;;;4.10;100.00
51299;BME280;37382;45.192;9.790;2023-01-26T18:59:20;100999.22;;;4.20;100.00
51299;BME280;37382;45.192;9.790;2023-01-26T19:01:48;101001.03;;;4.20;100.00
51299;BME280;37382;45.192;9.790;2023-01-26T19:04:17;101002.31;;;4.25;100.00
51299;BME280;37382;45.192;9.790;2023-01-26T19:06:45;101001.69;;;4.32;100.00
51299;BME280;37382;45.192;9.790;2023-01-26T19:09:14;101008.00;;;4.22;100.00
51299;BME280;37382;45.192;9.790;2023-01-26T19:11:41;101010.22;;;3.99;100.00
51299;BME280;37382;45.192;9.790;2023-01-26T19:14:09;101015.72;;;3.60;100.00
51299;BME280;37382;45.192;9.790;2023-01-26T19:16:37;101016.81;;;3.20;100.00
51299;BME280;37382;45.192;9.790;2023-01-26T19:19:04;101016.38;;;2.76;100.00
51299;BME280;37382;45.192;9.790;2023-01-26T19:21:32;101023.25;;;2.49;100.00
51299;BME280;37382;45.192;9.790;2023-01-26T19:24:00;101016.31;;;2.46;100.00
51299;BME280;37382;45.192;9.790;2023-01-26T19:26:32;101018.34;;;2.64;100.00
51299;BME280;37382;45.192;9.790;2023-01-26T19:28:59;101009.72;;;2.80;100.00
51299;BME280;37382;45.192;9.790;2023-01-26T19:31:27;101014.38;;;3.07;100.00
51299;BME280;37382;45.192;9.790;2023-01-26T19:33:57;101019.91;;;3.25;100.00
51299;BME280;37382;45.192;9.790;2023-01-26T19:36:27;101013.50;;;3.46;100.00
51299;BME280;37382;45.192;9.790;2023-01-26T19:38:55;101012.50;;;3.47;100.00
51299;BME280;37382;45.192;9.790;2023-01-26T19:41:23;101014.75;;;3.51;100.00
51299;BME280;37382;45.192;9.790;2023-01-26T19:43:50;101018.75;;;3.37;100.00
51299;BME280;37382;45.192;9.790;2023-01-26T19:46:19;101022.03;;;2.92;100.00
51299;BME280;37382;45.192;9.790;2023-01-26T19:48:47;101014.81;;;2.93;100.00
51299;BME280;37382;45.192;9.790;2023-01-26T19:51:17;101020.34;;;2.91;100.00